createdAt,value
2023-05-18T00:01:14.654Z,2.78
2023-05-18T00:03:42.328Z,3.15
2023-05-18T00:06:10.222Z,2.88
2023-05-18T00:08:37.935Z,2.75
2023-05-18T00:11:05.858Z,3.40
2023-05-18T00:13:32.636Z,3.08
2023-05-18T00:15:59.481Z,3.00
2023-05-18T00:18:26.672Z,3.17
2023-05-18T00:21:00.512Z,2.53
2023-05-18T00:23:32.853Z,2.67
2023-05-18T00:26:00.766Z,3.17
2023-05-18T00:28:27.975Z,3.00
2023-05-18T00:30:55.138Z,2.50
2023-05-18T00:33:22.555Z,3.03
2023-05-18T00:35:49.600Z,2.30
2023-05-18T00:38:19.520Z,3.10
2023-05-18T00:40:46.340Z,2.50
2023-05-18T00:43:12.838Z,2.38
2023-05-18T00:45:39.595Z,3.22
2023-05-18T00:48:07.269Z,2.28
2023-05-18T00:50:34.779Z,2.58
2023-05-18T00:53:01.599Z,2.35
2023-05-18T00:55:28.795Z,2.55
2023-05-18T00:57:57.306Z,2.45
2023-05-18T01:00:24.527Z,2.40
2023-05-18T01:02:51.765Z,2.70
2023-05-18T01:05:20.127Z,2.70
2023-05-18T01:07:47.993Z,2.65
2023-05-18T01:10:17.453Z,2.78
2023-05-18T01:13:02.861Z,2.88
2023-05-18T01:15:35.762Z,2.47
2023-05-18T01:18:22.017Z,2.23
2023-05-18T01:20:59.514Z,2.42
2023-05-18T01:23:58.466Z,2.63
2023-05-18T01:26:30.228Z,2.38
2023-05-18T01:29:00.061Z,2.33
2023-05-18T01:31:27.490Z,2.65
2023-05-18T01:33:54.942Z,2.42
2023-05-18T01:36:21.655Z,2.30
2023-05-18T01:38:48.757Z,2.08
2023-05-18T01:41:27.046Z,2.28
2023-05-18T01:44:17.948Z,2.20
2023-05-18T01:47:13.028Z,2.80
2023-05-18T01:49:53.419Z,2.90
2023-05-18T01:52:33.178Z,2.70
2023-05-18T01:55:04.648Z,3.20
2023-05-18T01:57:36.378Z,3.13
2023-05-18T02:00:07.705Z,2.65
2023-05-18T02:02:43.029Z,2.47
2023-05-18T02:05:12.487Z,2.38
2023-05-18T02:07:40.359Z,2.50
2023-05-18T02:10:08.909Z,2.80
2023-05-18T02:12:35.862Z,2.40
2023-05-18T02:15:05.586Z,3.20
2023-05-18T02:17:38.253Z,2.83
2023-05-18T02:20:07.425Z,2.60
2023-05-18T02:22:34.675Z,2.72
2023-05-18T02:25:02.507Z,2.55
2023-05-18T02:27:29.196Z,2.47
2023-05-18T02:29:56.744Z,2.78
2023-05-18T02:32:23.876Z,2.78
2023-05-18T02:34:53.833Z,2.80
2023-05-18T02:37:23.054Z,2.88
2023-05-18T02:39:50.334Z,2.83
2023-05-18T02:42:17.034Z,2.88
2023-05-18T02:44:43.895Z,2.75
2023-05-18T02:47:14.117Z,2.90
2023-05-18T02:49:41.150Z,3.67
2023-05-18T02:52:08.977Z,2.60
2023-05-18T02:54:35.978Z,2.72
2023-05-18T02:57:04.572Z,2.90
2023-05-18T02:59:44.315Z,2.95
2023-05-18T03:02:14.435Z,3.03
2023-05-18T03:04:41.847Z,2.70
2023-05-18T03:07:10.465Z,2.75
2023-05-18T03:09:38.011Z,2.60
2023-05-18T03:12:05.512Z,3.03
2023-05-18T03:14:32.301Z,3.10
2023-05-18T03:16:58.981Z,3.00
2023-05-18T03:19:27.422Z,3.13
2023-05-18T03:21:54.391Z,2.45
2023-05-18T03:24:21.532Z,3.42
2023-05-18T03:26:50.018Z,3.30
2023-05-18T03:29:16.774Z,3.15
2023-05-18T03:31:43.853Z,3.10
2023-05-18T03:34:12.190Z,3.33
2023-05-18T03:36:39.024Z,3.25
2023-05-18T03:39:08.562Z,3.80
2023-05-18T03:41:35.858Z,3.92
2023-05-18T03:44:02.838Z,3.20
2023-05-18T03:46:30.957Z,3.10
2023-05-18T03:48:58.004Z,3.65
2023-05-18T03:51:34.142Z,3.67
2023-05-18T03:54:01.870Z,3.42
2023-05-18T03:56:31.179Z,3.70
2023-05-18T03:58:58.653Z,3.45
2023-05-18T04:01:25.622Z,3.53
2023-05-18T04:03:56.325Z,3.30
2023-05-18T04:06:23.816Z,3.50
2023-05-18T04:08:50.479Z,3.05
2023-05-18T04:11:17.506Z,3.75
2023-05-18T04:13:44.222Z,3.15
2023-05-18T04:16:13.641Z,3.70
2023-05-18T04:18:41.549Z,2.65
2023-05-18T04:21:09.032Z,3.33
2023-05-18T04:23:39.176Z,3.15
2023-05-18T04:26:06.898Z,3.03
2023-05-18T04:28:33.613Z,3.17
2023-05-18T04:31:01.812Z,3.20
2023-05-18T04:33:32.721Z,3.20
2023-05-18T04:36:04.813Z,3.28
2023-05-18T04:38:34.464Z,3.40
2023-05-18T04:41:07.277Z,3.47
2023-05-18T04:43:36.556Z,3.13
2023-05-18T04:46:04.069Z,2.92
2023-05-18T04:48:32.895Z,3.60
2023-05-18T04:51:04.642Z,2.95
2023-05-18T04:53:33.315Z,3.30
2023-05-18T04:56:03.012Z,3.35
2023-05-18T04:58:30.691Z,4.10
2023-05-18T05:00:57.577Z,3.55
2023-05-18T05:03:24.361Z,3.85
2023-05-18T05:05:51.026Z,3.58
2023-05-18T05:08:17.640Z,3.38
2023-05-18T05:10:44.898Z,3.60
2023-05-18T05:13:11.756Z,3.45
2023-05-18T05:15:40.049Z,3.72
2023-05-18T05:18:06.824Z,3.40
2023-05-18T05:20:34.331Z,4.00
2023-05-18T05:23:01.252Z,3.60
2023-05-18T05:25:29.126Z,3.58
2023-05-18T05:27:56.298Z,4.10
2023-05-18T05:30:23.753Z,3.70
2023-05-18T05:32:50.680Z,3.22
2023-05-18T05:35:17.267Z,2.83
2023-05-18T05:37:45.202Z,2.90
2023-05-18T05:40:12.307Z,3.20
2023-05-18T05:42:44.247Z,3.47
2023-05-18T05:45:12.119Z,2.92
2023-05-18T05:47:50.688Z,3.30
2023-05-18T05:50:19.972Z,3.72
2023-05-18T05:52:49.439Z,2.88
2023-05-18T05:55:17.014Z,2.50
2023-05-18T05:57:43.691Z,3.00
2023-05-18T06:00:14.282Z,3.03
2023-05-18T06:02:58.738Z,2.95
2023-05-18T06:05:35.169Z,2.95
2023-05-18T06:08:02.962Z,3.13
2023-05-18T06:10:29.645Z,3.22
2023-05-18T06:12:56.361Z,3.20
2023-05-18T06:15:28.408Z,2.70
2023-05-18T06:17:55.425Z,3.38
2023-05-18T06:20:22.330Z,2.70
2023-05-18T06:22:49.501Z,3.30
2023-05-18T06:25:24.408Z,3.10
2023-05-18T06:28:03.619Z,3.60
2023-05-18T06:30:47.073Z,3.30
2023-05-18T06:33:23.752Z,3.20
2023-05-18T06:35:51.323Z,2.70
2023-05-18T06:38:18.216Z,3.05
2023-05-18T06:40:45.384Z,3.63
2023-05-18T06:43:12.363Z,3.80
2023-05-18T06:45:46.901Z,3.22
2023-05-18T06:48:20.227Z,3.38
2023-05-18T06:50:47.423Z,3.45
2023-05-18T06:53:14.476Z,3.35
2023-05-18T06:55:41.288Z,3.80
2023-05-18T06:58:08.026Z,3.17
2023-05-18T07:00:35.818Z,3.60
2023-05-18T07:03:03.516Z,3.25
2023-05-18T07:05:30.700Z,3.40
2023-05-18T07:07:57.741Z,2.92
2023-05-18T07:10:24.528Z,3.30
2023-05-18T07:12:53.639Z,3.38
2023-05-18T07:15:20.361Z,3.42
2023-05-18T07:17:46.964Z,3.50
2023-05-18T07:20:14.220Z,3.42
2023-05-18T07:22:41.116Z,3.10
2023-05-18T07:25:08.375Z,3.22
2023-05-18T07:27:34.952Z,3.70
2023-05-18T07:30:01.783Z,3.65
2023-05-18T07:32:28.665Z,3.35
2023-05-18T07:34:55.418Z,3.45
2023-05-18T07:37:22.195Z,3.47
2023-05-18T07:39:48.812Z,4.78
2023-05-18T07:42:15.457Z,3.33
2023-05-18T07:44:42.171Z,3.50
2023-05-18T07:47:08.937Z,3.53
2023-05-18T07:49:35.893Z,3.45
2023-05-18T07:52:02.634Z,3.17
2023-05-18T07:54:29.231Z,3.30
2023-05-18T07:56:58.535Z,3.53
2023-05-18T07:59:26.602Z,3.58
2023-05-18T08:01:53.496Z,3.20
2023-05-18T08:04:20.118Z,3.65
2023-05-18T08:06:46.734Z,3.33
2023-05-18T08:09:13.327Z,3.50
2023-05-18T08:11:40.050Z,3.70
2023-05-18T08:14:06.745Z,3.63
2023-05-18T08:16:37.267Z,2.67
2023-05-18T08:19:04.244Z,3.63
2023-05-18T08:21:30.822Z,3.22
2023-05-18T08:23:57.477Z,3.05
2023-05-18T08:26:24.612Z,3.33
2023-05-18T08:28:51.649Z,3.15
2023-05-18T08:31:18.484Z,3.50
2023-05-18T08:33:45.377Z,3.10
2023-05-18T08:36:12.364Z,3.20
2023-05-18T08:38:39.042Z,3.40
2023-05-18T08:41:15.357Z,2.78
2023-05-18T08:43:45.827Z,2.92
2023-05-18T08:46:28.516Z,3.33
2023-05-18T08:48:58.242Z,3.65
2023-05-18T08:51:29.576Z,2.58
2023-05-18T08:53:56.891Z,2.85
2023-05-18T08:56:24.855Z,3.25
2023-05-18T08:58:56.272Z,2.50
2023-05-18T09:01:28.419Z,2.60
2023-05-18T09:03:59.845Z,2.40
2023-05-18T09:06:28.322Z,2.78
2023-05-18T09:08:59.768Z,2.72
2023-05-18T09:11:27.873Z,3.05
2023-05-18T09:13:54.988Z,3.33
2023-05-18T09:16:21.728Z,3.20
2023-05-18T09:18:48.548Z,3.42
2023-05-18T09:21:15.274Z,2.78
2023-05-18T09:23:42.367Z,2.80
2023-05-18T09:26:13.340Z,2.60
2023-05-18T09:28:42.601Z,2.97
2023-05-18T09:31:12.775Z,2.80
2023-05-18T09:33:40.191Z,3.33
2023-05-18T09:36:08.701Z,3.13
2023-05-18T09:38:43.214Z,2.80
2023-05-18T09:41:11.365Z,2.83
2023-05-18T09:43:38.724Z,3.22
2023-05-18T09:46:09.161Z,3.15
2023-05-18T09:48:37.379Z,2.75
2023-05-18T09:51:07.718Z,3.10
2023-05-18T09:53:39.645Z,2.63
2023-05-18T09:56:11.794Z,3.08
2023-05-18T09:58:39.860Z,2.85
2023-05-18T10:01:06.672Z,3.08
2023-05-18T10:03:39.188Z,3.35
2023-05-18T10:06:08.861Z,3.20
2023-05-18T10:08:37.197Z,3.03
2023-05-18T10:11:04.391Z,2.70
2023-05-18T10:13:32.799Z,3.60
2023-05-18T10:16:04.868Z,3.00
2023-05-18T10:18:38.547Z,3.63
2023-05-18T10:21:09.885Z,3.08
2023-05-18T10:23:37.271Z,3.13
2023-05-18T10:26:09.706Z,2.95
2023-05-18T10:28:45.157Z,2.38
2023-05-18T10:31:16.206Z,3.08
2023-05-18T10:33:44.617Z,3.30
2023-05-18T10:36:11.515Z,3.15
2023-05-18T10:38:43.499Z,3.08
2023-05-18T10:41:12.295Z,3.00
2023-05-18T10:43:41.654Z,2.72
2023-05-18T10:46:09.785Z,2.97
2023-05-18T10:48:42.892Z,3.50
2023-05-18T10:51:10.800Z,3.08
2023-05-18T10:53:39.503Z,3.50
2023-05-18T10:56:07.875Z,3.28
2023-05-18T10:58:36.996Z,2.90
2023-05-18T11:01:09.338Z,3.42
2023-05-18T11:03:39.611Z,3.00
2023-05-18T11:06:08.770Z,3.30
2023-05-18T11:08:46.506Z,3.15
2023-05-18T11:11:15.066Z,3.13
2023-05-18T11:13:46.378Z,3.58
2023-05-18T11:16:14.780Z,3.15
2023-05-18T11:18:51.684Z,3.55
2023-05-18T11:21:24.394Z,3.28
2023-05-18T11:24:19.142Z,3.53
2023-05-18T11:26:58.174Z,3.55
2023-05-18T11:29:32.506Z,3.80
2023-05-18T11:31:59.323Z,3.47
2023-05-18T11:34:45.590Z,3.65
2023-05-18T11:37:34.168Z,2.72
2023-05-18T11:40:03.508Z,3.67
2023-05-18T11:42:34.908Z,3.88
2023-05-18T11:45:09.576Z,3.50
2023-05-18T11:47:38.058Z,3.65
2023-05-18T11:50:07.983Z,3.50
2023-05-18T11:52:48.406Z,4.13
2023-05-18T11:55:17.306Z,3.67
2023-05-18T11:57:47.583Z,3.58
2023-05-18T12:00:18.390Z,3.38
2023-05-18T12:02:48.345Z,3.45
2023-05-18T12:05:16.096Z,3.50
2023-05-18T12:07:44.972Z,2.95
2023-05-18T12:10:17.140Z,2.90
2023-05-18T12:12:47.548Z,3.22
2023-05-18T12:15:16.462Z,3.28
2023-05-18T12:17:48.731Z,3.90
2023-05-18T12:20:19.819Z,3.08
2023-05-18T12:22:52.526Z,4.05
2023-05-18T12:25:21.218Z,3.80
2023-05-18T12:27:48.668Z,3.70
2023-05-18T12:30:16.166Z,3.90
2023-05-18T12:33:04.363Z,3.20
2023-05-18T12:35:33.252Z,3.47
2023-05-18T12:38:00.881Z,3.75
2023-05-18T12:40:28.664Z,3.60
2023-05-18T12:42:58.221Z,3.50
2023-05-18T12:45:31.546Z,3.35
2023-05-18T12:50:37.212Z,3.28
2023-05-18T12:53:04.211Z,2.70
2023-05-18T12:55:33.338Z,3.90
2023-05-18T12:58:07.213Z,3.10
2023-05-18T13:03:10.277Z,3.75
2023-05-18T13:05:47.147Z,2.78
2023-05-18T13:08:23.167Z,3.40
2023-05-18T13:10:58.381Z,3.10
2023-05-18T13:13:28.541Z,3.30
2023-05-18T13:15:55.433Z,2.95
2023-05-18T13:18:22.160Z,3.15
2023-05-18T13:20:57.026Z,3.85
2023-05-18T13:23:26.512Z,3.10
2023-05-18T13:25:53.049Z,3.78
2023-05-18T13:28:21.836Z,2.92
2023-05-18T13:30:50.366Z,3.45
2023-05-18T13:33:19.263Z,3.03
2023-05-18T13:35:47.283Z,3.50
2023-05-18T13:38:17.956Z,3.20
2023-05-18T13:40:46.397Z,3.00
2023-05-18T13:43:14.022Z,3.15
2023-05-18T13:45:41.950Z,3.50
2023-05-18T13:48:10.748Z,3.58
2023-05-18T13:50:41.116Z,3.47
2023-05-18T13:53:07.729Z,3.85
2023-05-18T13:55:35.566Z,2.95
2023-05-18T13:58:02.710Z,3.85
2023-05-18T14:00:33.176Z,3.70
2023-05-18T14:03:00.380Z,4.22
2023-05-18T14:05:27.044Z,3.38
2023-05-18T14:07:53.702Z,3.78
2023-05-18T14:10:20.886Z,3.40
2023-05-18T14:12:47.495Z,3.50
2023-05-18T14:15:14.987Z,3.22
2023-05-18T14:17:42.996Z,3.67
2023-05-18T14:20:10.814Z,3.50
2023-05-18T14:22:37.476Z,3.50
2023-05-18T14:25:04.507Z,3.10
2023-05-18T14:27:31.987Z,3.17
2023-05-18T14:29:58.646Z,3.70
2023-05-18T14:32:25.547Z,3.35
2023-05-18T14:34:55.365Z,3.22
2023-05-18T14:37:22.271Z,2.95
2023-05-18T14:39:48.839Z,3.45
2023-05-18T14:42:16.297Z,2.95
2023-05-18T14:44:43.227Z,3.50
2023-05-18T14:47:10.563Z,4.00
2023-05-18T14:49:37.729Z,2.65
2023-05-18T14:52:04.636Z,2.80
2023-05-18T14:54:31.260Z,2.97
2023-05-18T14:56:58.113Z,2.85
2023-05-18T14:59:25.068Z,2.60
2023-05-18T15:01:52.352Z,3.10
2023-05-18T15:04:20.162Z,2.83
2023-05-18T15:06:47.058Z,2.90
2023-05-18T15:09:14.967Z,2.90
2023-05-18T15:11:42.088Z,2.50
2023-05-18T15:14:08.837Z,3.03
2023-05-18T15:16:36.013Z,2.60
2023-05-18T15:19:04.358Z,2.60
2023-05-18T15:21:31.103Z,2.90
2023-05-18T15:23:57.743Z,2.50
2023-05-18T15:26:25.104Z,2.70
2023-05-18T15:28:51.834Z,2.95
2023-05-18T15:31:18.597Z,3.00
2023-05-18T15:33:47.812Z,3.25
2023-05-18T15:36:14.517Z,3.25
2023-05-18T15:38:41.197Z,3.17
2023-05-18T15:41:08.002Z,3.75
2023-05-18T15:43:36.646Z,3.05
2023-05-18T15:46:03.714Z,2.85
2023-05-18T15:48:30.934Z,3.22
2023-05-18T15:50:57.569Z,3.47
2023-05-18T15:53:24.229Z,3.60
2023-05-18T15:55:57.379Z,3.10
2023-05-18T15:58:25.456Z,2.90
2023-05-18T16:00:52.241Z,2.67
2023-05-18T16:03:19.262Z,3.95
2023-05-18T16:05:46.088Z,4.30
2023-05-18T16:08:12.823Z,3.35
2023-05-18T16:10:39.698Z,3.20
2023-05-18T16:13:06.421Z,3.00
2023-05-18T16:15:34.306Z,3.05
2023-05-18T16:18:01.586Z,3.33
2023-05-18T16:20:28.527Z,2.75
2023-05-18T16:22:55.654Z,2.97
2023-05-18T16:25:22.463Z,2.95
2023-05-18T16:27:49.361Z,3.03
2023-05-18T16:30:18.717Z,3.20
2023-05-18T16:32:45.949Z,2.70
2023-05-18T16:35:14.477Z,2.88
2023-05-18T16:37:43.619Z,2.92
2023-05-18T16:40:10.690Z,2.88
2023-05-18T16:42:37.370Z,3.58
2023-05-18T16:45:04.409Z,3.53
2023-05-18T16:47:32.980Z,2.97
2023-05-18T16:50:01.013Z,3.03
2023-05-18T16:52:27.919Z,3.10
2023-05-18T16:54:54.632Z,3.00
2023-05-18T16:57:27.293Z,2.80
2023-05-18T16:59:54.775Z,3.40
2023-05-18T17:02:21.635Z,2.92
2023-05-18T17:04:49.787Z,3.20
2023-05-18T17:07:17.061Z,2.30
2023-05-18T17:09:44.251Z,2.92
2023-05-18T17:12:11.560Z,2.80
2023-05-18T17:14:42.622Z,3.00
2023-05-18T17:17:09.658Z,2.92
2023-05-18T17:19:38.882Z,2.97
2023-05-18T17:22:06.140Z,3.33
2023-05-18T17:24:34.161Z,3.00
2023-05-18T17:27:01.537Z,3.20
2023-05-18T17:29:28.894Z,3.80
2023-05-18T17:31:56.396Z,3.00
2023-05-18T17:34:23.353Z,2.70
2023-05-18T17:36:50.066Z,2.90
2023-05-18T17:39:16.941Z,3.65
2023-05-18T17:41:45.479Z,2.90
2023-05-18T17:44:16.388Z,3.60
2023-05-18T17:46:46.415Z,2.85
2023-05-18T17:49:13.796Z,3.80
2023-05-18T17:51:40.586Z,3.03
2023-05-18T17:54:07.584Z,3.65
2023-05-18T17:56:35.311Z,3.30
2023-05-18T17:59:03.146Z,3.40
2023-05-18T18:01:30.670Z,3.03
2023-05-18T18:03:58.187Z,3.03
2023-05-18T18:06:25.431Z,3.42
2023-05-18T18:08:55.876Z,3.40
2023-05-18T18:11:23.495Z,3.10
2023-05-18T18:13:51.041Z,3.50
2023-05-18T18:16:19.141Z,3.53
2023-05-18T18:18:46.400Z,4.32
2023-05-18T18:21:13.876Z,3.50
2023-05-18T18:23:40.631Z,3.35
2023-05-18T18:26:07.938Z,3.33
2023-05-18T18:28:35.222Z,3.33
2023-05-18T18:31:02.265Z,3.10
2023-05-18T18:33:29.233Z,3.40
2023-05-18T18:35:57.543Z,3.75
2023-05-18T18:38:26.946Z,3.10
2023-05-18T18:40:57.751Z,3.85
2023-05-18T18:43:25.946Z,3.33
2023-05-18T18:45:52.612Z,3.72
2023-05-18T18:48:21.376Z,3.55
2023-05-18T18:50:48.490Z,3.50
2023-05-18T18:53:15.351Z,3.50
2023-05-18T18:55:42.125Z,3.42
2023-05-18T18:58:08.776Z,3.72
2023-05-18T19:00:35.705Z,4.30
2023-05-18T19:03:02.614Z,3.75
2023-05-18T19:05:30.945Z,4.13
2023-05-18T19:07:57.784Z,3.65
2023-05-18T19:10:25.373Z,4.38
2023-05-18T19:12:52.566Z,3.65
2023-05-18T19:15:21.378Z,4.30
2023-05-18T19:17:53.328Z,4.70
2023-05-18T19:20:20.810Z,4.18
2023-05-18T19:22:47.453Z,4.20
2023-05-18T19:25:14.177Z,3.72
2023-05-18T19:27:40.783Z,4.20
2023-05-18T19:30:08.505Z,4.18
2023-05-18T19:32:35.206Z,4.13
2023-05-18T19:35:01.908Z,4.30
2023-05-18T19:37:28.499Z,4.70
2023-05-18T19:39:55.231Z,5.38
2023-05-18T19:42:21.843Z,4.55
2023-05-18T19:44:48.510Z,4.40
2023-05-18T19:47:15.187Z,4.32
2023-05-18T19:49:42.058Z,4.70
2023-05-18T19:52:10.469Z,3.85
2023-05-18T19:54:37.725Z,4.95
2023-05-18T19:57:04.471Z,4.20
2023-05-18T19:59:31.640Z,4.38
2023-05-18T20:01:59.404Z,4.13
2023-05-18T20:04:28.398Z,4.80
2023-05-18T20:06:59.439Z,4.38
2023-05-18T20:09:29.851Z,4.43
2023-05-18T20:11:56.704Z,4.47
2023-05-18T20:14:23.849Z,4.78
2023-05-18T20:16:55.640Z,4.65
2023-05-18T20:19:22.818Z,4.20
2023-05-18T20:21:52.731Z,4.43
2023-05-18T20:24:19.709Z,4.38
2023-05-18T20:26:46.442Z,4.30
2023-05-18T20:29:13.207Z,4.90
2023-05-18T20:31:40.442Z,5.10
2023-05-18T20:34:07.279Z,4.75
2023-05-18T20:36:35.923Z,4.50
2023-05-18T20:39:02.715Z,4.00
2023-05-18T20:41:29.655Z,4.28
2023-05-18T20:43:57.301Z,4.32
2023-05-18T20:46:25.084Z,4.88
2023-05-18T20:48:55.059Z,4.13
2023-05-18T20:51:23.273Z,5.07
2023-05-18T20:53:50.465Z,4.50
2023-05-18T20:56:21.766Z,4.22
2023-05-18T20:58:50.071Z,4.55
2023-05-18T21:01:16.924Z,4.45
2023-05-18T21:03:45.502Z,4.38
2023-05-18T21:06:15.501Z,4.63
2023-05-18T21:08:45.324Z,4.30
2023-05-18T21:11:12.002Z,4.03
2023-05-18T21:13:38.732Z,4.85
2023-05-18T21:16:09.435Z,4.15
2023-05-18T21:18:37.280Z,4.93
2023-05-18T21:21:03.976Z,4.28
2023-05-18T21:23:30.773Z,4.65
2023-05-18T21:25:57.571Z,4.18
2023-05-18T21:28:25.044Z,4.22
2023-05-18T21:30:52.648Z,4.72
2023-05-18T21:33:19.704Z,4.05
2023-05-18T21:35:46.456Z,4.43
2023-05-18T21:38:13.130Z,4.82
2023-05-18T21:40:43.662Z,4.88
2023-05-18T21:43:12.761Z,5.07
2023-05-18T21:45:39.624Z,4.35
2023-05-18T21:48:06.958Z,5.15
2023-05-18T21:50:36.546Z,5.95
2023-05-18T21:53:03.786Z,4.95
2023-05-18T21:55:31.722Z,5.45
2023-05-18T21:57:58.781Z,7.00
2023-05-18T22:00:26.796Z,4.65
2023-05-18T22:02:53.529Z,6.15
2023-05-18T22:05:20.506Z,6.70
2023-05-18T22:07:47.415Z,6.47
2023-05-18T22:10:14.082Z,6.40
2023-05-18T22:12:45.705Z,6.00
2023-05-18T22:15:13.432Z,6.60
2023-05-18T22:17:40.297Z,7.75
2023-05-18T22:20:09.101Z,7.60
2023-05-18T22:22:35.845Z,7.53
2023-05-18T22:25:02.518Z,7.30
2023-05-18T22:27:29.240Z,8.15
2023-05-18T22:29:56.062Z,6.43
2023-05-18T22:32:24.002Z,6.07
2023-05-18T22:34:51.001Z,7.35
2023-05-18T22:37:17.874Z,6.28
2023-05-18T22:39:44.599Z,7.50
2023-05-18T22:42:11.285Z,7.07
2023-05-18T22:44:39.330Z,6.53
2023-05-18T22:47:07.531Z,7.75
2023-05-18T22:49:35.858Z,7.72
2023-05-18T22:52:06.705Z,7.93
2023-05-18T22:54:33.665Z,7.53
2023-05-18T22:57:00.433Z,7.97
2023-05-18T22:59:28.573Z,6.90
2023-05-18T23:01:55.720Z,7.90
2023-05-18T23:04:22.394Z,6.18
2023-05-18T23:06:49.789Z,5.95
2023-05-18T23:09:17.108Z,6.38
2023-05-18T23:11:51.086Z,6.40
2023-05-18T23:14:19.936Z,8.32
2023-05-18T23:16:49.156Z,7.10
2023-05-18T23:19:18.494Z,7.10
2023-05-18T23:21:45.853Z,8.07
2023-05-18T23:24:12.879Z,7.50
2023-05-18T23:26:46.308Z,7.93
2023-05-18T23:29:13.080Z,7.70
2023-05-18T23:31:39.719Z,9.32
2023-05-18T23:34:06.827Z,8.07
2023-05-18T23:36:37.117Z,8.43
2023-05-18T23:39:04.153Z,6.97
2023-05-18T23:41:31.913Z,6.70
2023-05-18T23:43:58.861Z,7.55
2023-05-18T23:46:26.140Z,7.43
2023-05-18T23:48:53.490Z,5.47
2023-05-18T23:51:20.915Z,6.85
2023-05-18T23:53:49.924Z,11.35
2023-05-18T23:56:17.283Z,8.20
2023-05-18T23:58:45.853Z,10.27
